Hlavní strana
METAR-TAF:

METAR-TAF

Letiště :

Dyersburg, Tennessee, Spojené státy americké

zeměpisná šířka: 36-00N, zeměpisná délka: 089-24W, výška: 103 m

Aktuální stav počasí

Zpráva byla vytvořena před 22 minutami, v 23:56 UTC
Východoseverovýchodní vítr 3 kt
Teplota 7°C
Vlhkost vzduchu 81%
Tlak 1025 hPa
Viditelnost: 16.1 km
Jasno

METAR: KDYR 072356Z AUTO 06003KT 10SM CLR 07/04 A3028 RMK AO2 SLP261 6//// T00720044 10122 20072 55000 PNO $

Čas: 18:18 (00:18 UTC)


TAF: chybějící

Stav a předpovědi počasí z více než 4 000 letišť (zprávy METAR a TAF).

Červené a žluté tečky na mapě představují dostupné meteorologické stanice.

Když kurzor umístíte na tečku, zobrazí se název stanice.

Pak kliknutím zobrazíte stav a předpověď počasí.

Chcete-li změnit mapu, kliknutím na zelené tlačítko se znaménkem +mapu přiblížíte, kliknutím na zelené tlačítko se znaménkem – mapu oddálíte a kliknutím na zelené šipky přejdete na sousední mapy.


METAR-TAF: